UUEE/SVO METAR and TAF weather

Enter ICAO airport designator
Station Type Date Time Source
UUEE METAR 2021/07/28 05:00 UTC NOAA

UUEE 280500Z 22003MPS CAVOK 21/15 Q1016 R24C/CLRD62 R24R/CLRD62 NOSIG


Station Type Date Time Source
UUEE Decoded METAR 2021/07/28 05:00 UTC NOAA

Moscow / Sheremet'Ye , Russia (UUEE) 55-59N 037-30E
Jul 28, 2021 - 01:00 AM EDT / 2021.07.28 0500 UTC
Wind: from the SW (220 degrees) at 7 MPH (6 KT):0
Visibility: greater than 7 mile(s):0
Temperature: 69 F (21 C)
Dew Point: 59 F (15 C)
Relative Humidity: 68%
Pressure (altimeter): 30.00 in. Hg (1016 hPa)
ob: UUEE 280500Z 22003MPS CAVOK 21/15 Q1016 R24C/CLRD62 R24R/CLRD62 NOSIG
cycle: 5

Station Type Date Time Source
UUEE TAF 2021/07/28 03:24 UTC NOAA

TAF UUEE 280154Z 2803/2903 07003MPS 9999 SCT040 TX26/2810Z TN17/2901Z
BECMG 2805/2806 20005G11MPS
TEMPO 2806/2808 18009G16MPS -SHRA BKN020CB
TEMPO 2808/2820 18010G17MPS 2900 -TSRA BKN020CB

Example: see airport list